Time;durP1;ratioP1;P1;durP2;ratioP2;P2;SDS_P1;SDS_P2;PMS_P1;PMS_P2;Temp;Humidity;BMP_temperature;BMP_pressure;BME280_temperature;BME280_humidity;BME280_pressure;Samples;Min_cycle;Max_cycle;Signal;HPM_P1;HPM_P2
2022/06/24 00:01:11;;;;;;;;;;;19.10;99.90;;;;;;4955694;29;19938;-78
2022/06/24 00:03:37;;;;;;;;;;;19.10;99.90;;;;;;4937674;29;20379;-78
2022/06/24 00:06:07;;;;;;;;;;;19.10;99.90;;;;;;4955689;29;19965;-79
2022/06/24 00:08:45;;;;;;;;;;;19.20;99.90;;;;;;4955817;29;19910;-79
2022/06/24 00:11:11;;;;;;;;;;;19.10;99.90;;;;;;4955854;29;20381;-78
2022/06/24 00:13:40;;;;;;;;;;;18.80;99.90;;;;;;4955669;29;19938;-79
2022/06/24 00:16:05;;;;;;;;;;;18.80;99.90;;;;;;4955436;28;19910;-77
2022/06/24 00:18:31;;;;;;;;;;;19.00;99.90;;;;;;4955935;28;19917;-79
2022/06/24 00:20:57;;;;;;;;;;;18.90;99.90;;;;;;4955808;28;20327;-79
2022/06/24 00:23:22;;;;;;;;;;;18.70;99.90;;;;;;4955554;29;19911;-79
2022/06/24 00:25:49;;;;;;;;;;;18.60;99.90;;;;;;4955546;29;19911;-79
2022/06/24 00:28:15;;;;;;;;;;;18.60;99.90;;;;;;4955509;28;19917;-79
2022/06/24 00:30:51;;;;;;;;;;;18.80;99.90;;;;;;4955366;28;19917;-77
2022/06/24 00:33:18;;;;;;;;;;;18.80;99.90;;;;;;4955253;29;20303;-80
2022/06/24 00:35:47;;;;;;;;;;;18.90;99.90;;;;;;4955430;29;19911;-79
2022/06/24 00:38:22;;;;;;;;;;;18.90;99.90;;;;;;4955492;29;19910;-78
2022/06/24 00:40:49;;;;;;;;;;;18.90;99.90;;;;;;4955337;29;19910;-79
2022/06/24 00:43:24;;;;;;;;;;;18.70;99.90;;;;;;4938057;29;19911;-78
2022/06/24 00:45:50;;;;;;;;;;;18.60;99.90;;;;;;4955292;29;19918;-78
2022/06/24 00:48:18;;;;;;;;;;;18.40;99.90;;;;;;4954999;29;19917;-78
2022/06/24 00:50:46;;;;;;;;;;;18.40;99.90;;;;;;4955406;29;19911;-78
2022/06/24 00:53:12;;;;;;;;;;;18.50;99.90;;;;;;4955633;29;19932;-77
2022/06/24 00:55:38;;;;;;;;;;;18.60;99.90;;;;;;4955264;29;19910;-79
2022/06/24 00:58:04;;;;;;;;;;;18.60;99.90;;;;;;4937961;29;19911;-79
2022/06/24 01:00:31;;;;;;;;;;;18.50;99.90;;;;;;4955068;29;19910;-79
2022/06/24 01:03:03;;;;;;;;;;;18.60;99.90;;;;;;4955436;29;19993;-79
2022/06/24 01:05:30;;;;;;;;;;;18.60;99.90;;;;;;4955203;29;19910;-79
2022/06/24 01:07:55;;;;;;;;;;;18.50;99.90;;;;;;4955000;29;19910;-79
2022/06/24 01:10:22;;;;;;;;;;;18.40;99.90;;;;;;4955086;29;20261;-78
2022/06/24 01:12:47;;;;;;;;;;;18.30;99.90;;;;;;4955418;29;19924;-77
2022/06/24 01:15:13;;;;;;;;;;;18.30;99.90;;;;;;4958055;28;19911;-78
2022/06/24 01:17:39;;;;;;;;;;;18.20;99.90;;;;;;4958650;29;20379;-78
2022/06/24 01:20:07;;;;;;;;;;;18.30;99.90;;;;;;4958640;29;19911;-77
2022/06/24 01:22:32;;;;;;;;;;;18.40;99.90;;;;;;4958322;29;19911;-78
2022/06/24 01:24:58;;;;;;;;;;;18.20;99.90;;;;;;4958418;28;19916;-78
2022/06/24 01:27:24;;;;;;;;;;;18.20;99.90;;;;;;4958348;28;19911;-78
2022/06/24 01:29:49;;;;;;;;;;;18.40;99.90;;;;;;4958310;29;20001;-79
2022/06/24 01:32:15;;;;;;;;;;;18.20;99.90;;;;;;4958161;29;19915;-78
2022/06/24 01:34:40;;;;;;;;;;;18.20;99.90;;;;;;4958189;29;19946;-77
2022/06/24 01:37:06;;;;;;;;;;;18.30;99.90;;;;;;4958550;28;20415;-78
2022/06/24 01:39:32;;;;;;;;;;;18.40;99.90;;;;;;4958154;28;19997;-78
2022/06/24 01:41:57;;;;;;;;;;;18.30;99.90;;;;;;4958092;28;20017;-77
2022/06/24 01:44:23;;;;;;;;;;;18.20;99.90;;;;;;4958022;29;19938;-79
2022/06/24 01:46:50;;;;;;;;;;;18.30;99.90;;;;;;4957914;28;19910;-78
2022/06/24 01:49:15;;;;;;;;;;;18.20;99.90;;;;;;4957538;29;19923;-78
2022/06/24 01:51:43;;;;;;;;;;;18.20;99.90;;;;;;4957853;29;19925;-77
2022/06/24 01:54:08;;;;;;;;;;;18.30;99.90;;;;;;4957837;29;19993;-78
2022/06/24 01:56:34;;;;;;;;;;;18.40;99.90;;;;;;4957837;29;19949;-80
2022/06/24 01:59:00;;;;;;;;;;;18.20;99.90;;;;;;4957781;29;19911;-78
2022/06/24 02:01:25;;;;;;;;;;;18.20;99.90;;;;;;4957892;29;19977;-80
2022/06/24 02:03:51;;;;;;;;;;;18.40;99.90;;;;;;4957731;29;19910;-77
2022/06/24 02:06:17;;;;;;;;;;;18.40;99.90;;;;;;4957804;29;19998;-79
2022/06/24 02:08:43;;;;;;;;;;;18.40;99.90;;;;;;4957739;28;19949;-79
2022/06/24 02:13:54;;;;;;;;;;;18.50;99.90;;;;;;4957788;29;19917;-79
2022/06/24 02:16:21;;;;;;;;;;;18.20;99.90;;;;;;4957788;29;19918;-77
2022/06/24 02:18:46;;;;;;;;;;;17.60;99.90;;;;;;4957481;28;19978;-73
2022/06/24 02:21:12;;;;;;;;;;;17.20;99.90;;;;;;4957469;29;19911;-76
2022/06/24 02:23:38;;;;;;;;;;;17.10;99.90;;;;;;4957566;29;19910;-77
2022/06/24 02:26:04;;;;;;;;;;;17.10;99.90;;;;;;4956763;28;19918;-76
2022/06/24 02:28:29;;;;;;;;;;;16.90;99.90;;;;;;4957346;29;19917;-76
2022/06/24 02:30:56;;;;;;;;;;;16.60;99.90;;;;;;4957145;29;19910;-75
2022/06/24 02:33:22;;;;;;;;;;;16.60;99.90;;;;;;4957295;29;19911;-76
2022/06/24 02:35:47;;;;;;;;;;;16.70;99.90;;;;;;4957265;28;19918;-77
2022/06/24 02:38:13;;;;;;;;;;;16.80;99.90;;;;;;4957203;29;19911;-73
2022/06/24 02:40:48;;;;;;;;;;;16.90;99.90;;;;;;4957044;29;20286;-72
2022/06/24 02:43:16;;;;;;;;;;;16.90;99.90;;;;;;4957186;29;20398;-76
2022/06/24 02:45:44;;;;;;;;;;;16.80;99.90;;;;;;4939573;29;19915;-76
2022/06/24 02:48:12;;;;;;;;;;;16.90;99.90;;;;;;4956722;29;20406;-76
2022/06/24 02:50:40;;;;;;;;;;;17.00;99.90;;;;;;4956856;29;19915;-74
2022/06/24 02:53:05;;;;;;;;;;;17.10;99.90;;;;;;4956711;28;19914;-73
2022/06/24 02:55:31;;;;;;;;;;;17.10;99.90;;;;;;4956804;28;19917;-74
2022/06/24 02:57:57;;;;;;;;;;;17.10;99.90;;;;;;4956682;29;19922;-74
2022/06/24 03:00:22;;;;;;;;;;;17.10;99.90;;;;;;4956728;29;19917;-73
2022/06/24 03:02:48;;;;;;;;;;;17.20;99.90;;;;;;4956636;29;19910;-74
2022/06/24 03:05:13;;;;;;;;;;;17.20;99.90;;;;;;4956568;29;19945;-76
2022/06/24 03:07:39;;;;;;;;;;;17.20;99.90;;;;;;4956523;29;19942;-74
2022/06/24 03:10:05;;;;;;;;;;;17.10;99.90;;;;;;4956597;29;19961;-75
2022/06/24 03:12:30;;;;;;;;;;;17.10;99.90;;;;;;4956336;29;19969;-73
2022/06/24 03:14:56;;;;;;;;;;;17.10;99.90;;;;;;4956391;28;19911;-73
2022/06/24 03:17:21;;;;;;;;;;;17.00;99.90;;;;;;4939085;29;19918;-72
2022/06/24 03:19:47;;;;;;;;;;;16.90;99.90;;;;;;4939073;29;19938;-75
2022/06/24 03:22:13;;;;;;;;;;;17.00;99.90;;;;;;4956573;28;19917;-74
2022/06/24 03:24:38;;;;;;;;;;;17.10;99.90;;;;;;4956346;29;20053;-74
2022/06/24 03:27:04;;;;;;;;;;;17.00;99.90;;;;;;4956214;29;19942;-73
2022/06/24 03:29:30;;;;;;;;;;;17.20;99.90;;;;;;4956113;28;19926;-74
2022/06/24 03:31:56;;;;;;;;;;;17.10;99.90;;;;;;4955958;29;19930;-75
2022/06/24 03:34:21;;;;;;;;;;;17.10;99.90;;;;;;4956385;29;19993;-73
2022/06/24 03:36:47;;;;;;;;;;;17.20;99.90;;;;;;4938297;29;19915;-73
2022/06/24 03:39:12;;;;;;;;;;;17.10;99.90;;;;;;4955692;29;19911;-74
2022/06/24 03:41:38;;;;;;;;;;;17.20;99.90;;;;;;4956003;29;19911;-75
2022/06/24 03:44:04;;;;;;;;;;;17.30;99.90;;;;;;4956171;29;19938;-76
2022/06/24 03:46:29;;;;;;;;;;;17.30;99.90;;;;;;4956152;29;19911;-74
2022/06/24 03:48:55;;;;;;;;;;;17.30;99.90;;;;;;4955765;29;20311;-74
2022/06/24 03:51:20;;;;;;;;;;;17.30;99.90;;;;;;4955785;29;19915;-74
2022/06/24 03:53:46;;;;;;;;;;;17.40;99.90;;;;;;4955859;29;19910;-74
2022/06/24 03:56:11;;;;;;;;;;;17.40;99.90;;;;;;4955915;29;19911;-74
2022/06/24 03:58:37;;;;;;;;;;;17.40;99.90;;;;;;4955753;29;20371;-73
2022/06/24 04:01:03;;;;;;;;;;;17.50;99.90;;;;;;4955728;29;19997;-74
2022/06/24 04:03:29;;;;;;;;;;;17.40;99.90;;;;;;4955970;29;20004;-74
2022/06/24 04:05:54;;;;;;;;;;;17.40;99.90;;;;;;4955694;29;19911;-75
2022/06/24 04:08:20;;;;;;;;;;;17.40;99.90;;;;;;4955818;29;19910;-74
2022/06/24 04:10:45;;;;;;;;;;;17.40;99.90;;;;;;4955638;29;20263;-74
2022/06/24 04:13:11;;;;;;;;;;;17.30;99.90;;;;;;4956067;29;19911;-76
2022/06/24 04:15:43;;;;;;;;;;;17.20;99.90;;;;;;4955616;29;19914;-75
2022/06/24 04:18:08;;;;;;;;;;;17.10;99.90;;;;;;4955745;29;20316;-75
2022/06/24 04:20:34;;;;;;;;;;;17.00;99.90;;;;;;4955702;29;19911;-75
2022/06/24 04:22:59;;;;;;;;;;;16.90;99.90;;;;;;4955578;29;20421;-76
2022/06/24 04:25:25;;;;;;;;;;;16.90;99.90;;;;;;4955503;29;19969;-76
2022/06/24 04:27:50;;;;;;;;;;;16.80;99.90;;;;;;4955515;29;19918;-76
2022/06/24 04:30:16;;;;;;;;;;;16.80;99.90;;;;;;4955590;29;19914;-74
2022/06/24 04:32:42;;;;;;;;;;;16.90;99.90;;;;;;4955362;29;19914;-74
2022/06/24 04:35:08;;;;;;;;;;;17.00;99.90;;;;;;4955418;29;19914;-75
2022/06/24 04:37:35;;;;;;;;;;;17.00;99.90;;;;;;4955755;29;19911;-76
2022/06/24 04:40:00;;;;;;;;;;;17.00;99.90;;;;;;4955368;29;19917;-75
2022/06/24 04:42:26;;;;;;;;;;;16.90;99.90;;;;;;4955388;29;20012;-73
2022/06/24 04:44:51;;;;;;;;;;;16.90;99.90;;;;;;4955277;29;19938;-75
2022/06/24 04:47:17;;;;;;;;;;;17.00;99.90;;;;;;4955263;29;20288;-75
2022/06/24 04:49:43;;;;;;;;;;;17.00;99.90;;;;;;4957516;28;19922;-74
2022/06/24 04:52:09;;;;;;;;;;;17.00;99.90;;;;;;4959006;28;19922;-74
2022/06/24 04:54:35;;;;;;;;;;;17.10;99.90;;;;;;4958967;29;19911;-74
2022/06/24 04:57:01;;;;;;;;;;;17.30;99.90;;;;;;4958945;29;20352;-74
2022/06/24 04:59:26;;;;;;;;;;;17.40;99.90;;;;;;4941670;29;19910;-76
2022/06/24 05:01:52;;;;;;;;;;;17.80;99.90;;;;;;4958855;29;20260;-78
2022/06/24 05:04:18;;;;;;;;;;;18.00;99.90;;;;;;4958814;29;19917;-76
2022/06/24 05:06:43;;;;;;;;;;;18.10;99.90;;;;;;4958771;28;19954;-74
2022/06/24 05:09:09;;;;;;;;;;;18.10;99.90;;;;;;4958760;29;19926;-75
2022/06/24 05:11:34;;;;;;;;;;;18.20;99.90;;;;;;4959002;29;20415;-75
2022/06/24 05:14:00;;;;;;;;;;;18.10;99.90;;;;;;4958638;29;19915;-74
2022/06/24 05:16:26;;;;;;;;;;;18.00;99.90;;;;;;4941358;29;19910;-74
2022/06/24 05:18:51;;;;;;;;;;;18.20;99.90;;;;;;4958540;29;20287;-76
2022/06/24 05:21:17;;;;;;;;;;;18.10;99.90;;;;;;4958584;29;19918;-75
2022/06/24 05:23:42;;;;;;;;;;;18.20;99.90;;;;;;4958444;29;20021;-76
2022/06/24 05:26:08;;;;;;;;;;;18.30;99.90;;;;;;4958572;29;19926;-75
2022/06/24 05:28:35;;;;;;;;;;;18.30;99.90;;;;;;4958499;29;19910;-75
2022/06/24 05:31:00;;;;;;;;;;;18.30;99.90;;;;;;4958254;29;19910;-75
2022/06/24 05:33:26;;;;;;;;;;;18.10;99.90;;;;;;4958255;28;19961;-74
2022/06/24 05:35:52;;;;;;;;;;;18.10;99.90;;;;;;4958523;29;20383;-74
2022/06/24 05:38:21;;;;;;;;;;;18.00;99.90;;;;;;4958276;29;19918;-75
2022/06/24 05:40:51;;;;;;;;;;;18.00;99.90;;;;;;4958080;29;19950;-74
2022/06/24 05:43:17;;;;;;;;;;;18.10;99.90;;;;;;4958031;28;19922;-75
2022/06/24 05:45:43;;;;;;;;;;;18.10;99.90;;;;;;4958309;29;19918;-76
2022/06/24 05:48:09;;;;;;;;;;;18.00;99.90;;;;;;4957898;29;19918;-76
2022/06/24 05:50:38;;;;;;;;;;;17.90;99.90;;;;;;4957878;28;20303;-78
2022/06/24 05:55:49;;;;;;;;;;;17.80;99.90;;;;;;4957619;29;19938;-76
2022/06/24 05:58:14;;;;;;;;;;;17.80;99.90;;;;;;4957858;29;19910;-77
2022/06/24 06:00:40;;;;;;;;;;;18.00;99.90;;;;;;4956677;28;19942;-76
2022/06/24 06:03:05;;;;;;;;;;;18.00;99.90;;;;;;4957723;29;19917;-76
2022/06/24 06:05:31;;;;;;;;;;;17.90;99.90;;;;;;4940466;29;19910;-76
2022/06/24 06:07:57;;;;;;;;;;;17.90;99.90;;;;;;4957850;29;20009;-76
2022/06/24 06:10:22;;;;;;;;;;;18.00;99.90;;;;;;4957619;29;19917;-76
2022/06/24 06:12:48;;;;;;;;;;;18.10;99.90;;;;;;4957543;29;19941;-75
2022/06/24 06:15:14;;;;;;;;;;;18.30;99.90;;;;;;4957777;29;20009;-74
2022/06/24 06:17:40;;;;;;;;;;;18.20;99.90;;;;;;4957844;29;19918;-76
2022/06/24 06:20:05;;;;;;;;;;;18.20;99.90;;;;;;4957560;29;19914;-75
2022/06/24 06:22:32;;;;;;;;;;;18.40;99.90;;;;;;4957387;28;19914;-75
2022/06/24 06:24:57;;;;;;;;;;;18.50;99.90;;;;;;4957343;29;19914;-75
2022/06/24 06:27:23;;;;;;;;;;;18.50;99.90;;;;;;4957316;29;19993;-75
2022/06/24 06:29:48;;;;;;;;;;;18.50;99.90;;;;;;4957274;28;20009;-76
2022/06/24 06:32:14;;;;;;;;;;;18.60;99.90;;;;;;4957177;28;19914;-75
2022/06/24 06:34:39;;;;;;;;;;;18.90;99.90;;;;;;4939984;29;19961;-76
2022/06/24 06:37:05;;;;;;;;;;;19.00;99.90;;;;;;4957099;28;20367;-76
2022/06/24 06:39:31;;;;;;;;;;;19.00;99.90;;;;;;4957200;29;19914;-76
2022/06/24 06:41:56;;;;;;;;;;;19.40;99.90;;;;;;4957077;29;19966;-76
2022/06/24 06:44:22;;;;;;;;;;;19.30;99.90;;;;;;4957093;28;19911;-76
2022/06/24 06:46:48;;;;;;;;;;;19.20;99.90;;;;;;4957060;28;20439;-78
2022/06/24 06:49:14;;;;;;;;;;;19.10;99.90;;;;;;4956719;28;20005;-77
2022/06/24 06:51:39;;;;;;;;;;;19.00;99.90;;;;;;4956732;29;20009;-77
2022/06/24 06:54:05;;;;;;;;;;;18.90;99.90;;;;;;4956923;29;19945;-76
2022/06/24 06:56:33;;;;;;;;;;;19.10;99.90;;;;;;4956259;29;20192;-75
2022/06/24 06:58:58;;;;;;;;;;;19.30;99.90;;;;;;4956924;28;20009;-76
2022/06/24 07:01:24;;;;;;;;;;;19.40;99.90;;;;;;4956677;28;19910;-77
2022/06/24 07:03:49;;;;;;;;;;;19.20;99.90;;;;;;4956628;29;19997;-76
2022/06/24 07:06:15;;;;;;;;;;;19.00;99.90;;;;;;4956573;28;19911;-76
2022/06/24 07:08:41;;;;;;;;;;;18.90;99.90;;;;;;4956487;29;20335;-76
2022/06/24 07:11:06;;;;;;;;;;;19.00;99.90;;;;;;4956690;28;19997;-76
2022/06/24 07:13:32;;;;;;;;;;;19.30;99.90;;;;;;4956759;29;19961;-76
2022/06/24 07:16:00;;;;;;;;;;;19.30;99.90;;;;;;4939130;29;20012;-76
2022/06/24 07:18:26;;;;;;;;;;;19.50;99.90;;;;;;4956379;29;20011;-75
2022/06/24 07:20:51;;;;;;;;;;;19.70;99.90;;;;;;4956219;29;20009;-76
2022/06/24 07:23:17;;;;;;;;;;;19.90;99.90;;;;;;4956253;29;19918;-76
2022/06/24 07:25:43;;;;;;;;;;;20.20;99.90;;;;;;4956233;29;19911;-77
2022/06/24 07:28:08;;;;;;;;;;;20.20;99.90;;;;;;4956310;29;20380;-76
2022/06/24 07:30:34;;;;;;;;;;;20.20;99.90;;;;;;4956093;29;19993;-76
2022/06/24 07:32:59;;;;;;;;;;;20.60;99.90;;;;;;4956032;29;19914;-75
2022/06/24 07:35:26;;;;;;;;;;;20.60;99.90;;;;;;4956307;29;19918;-77
2022/06/24 07:37:52;;;;;;;;;;;20.90;99.90;;;;;;4956079;29;19911;-77
2022/06/24 07:40:17;;;;;;;;;;;20.70;99.90;;;;;;4956061;29;20310;-76
2022/06/24 07:42:43;;;;;;;;;;;20.50;99.90;;;;;;4956005;28;20278;-78
2022/06/24 07:45:09;;;;;;;;;;;20.60;99.90;;;;;;4955981;28;20344;-76
2022/06/24 07:47:36;;;;;;;;;;;20.60;99.90;;;;;;4938581;29;20384;-77
2022/06/24 07:50:05;;;;;;;;;;;21.10;99.90;;;;;;4955738;28;19922;-78
2022/06/24 07:52:30;;;;;;;;;;;23.20;99.90;;;;;;4955916;29;20035;-77
2022/06/24 07:57:40;;;;;;;;;;;23.70;99.90;;;;;;4955786;29;20013;-78
2022/06/24 08:00:06;;;;;;;;;;;23.40;99.90;;;;;;4955717;28;19954;-78
2022/06/24 08:02:31;;;;;;;;;;;23.00;99.90;;;;;;4955949;29;20283;-79
2022/06/24 08:04:57;;;;;;;;;;;25.20;99.90;;;;;;4956261;29;19914;-79
2022/06/24 08:07:23;;;;;;;;;;;24.50;99.90;;;;;;4955667;29;19910;-78
2022/06/24 08:09:48;;;;;;;;;;;22.90;99.90;;;;;;4956138;29;20391;-78
2022/06/24 08:12:14;;;;;;;;;;;22.70;99.90;;;;;;4955642;28;19922;-78
2022/06/24 08:14:39;;;;;;;;;;;22.50;99.90;;;;;;4955802;29;19914;-79
2022/06/24 08:17:05;;;;;;;;;;;24.90;99.90;;;;;;4955721;28;19918;-79
2022/06/24 08:19:30;;;;;;;;;;;27.00;96.20;;;;;;4955715;29;20338;-79
2022/06/24 08:21:56;;;;;;;;;;;27.00;93.80;;;;;;4955728;29;19914;-80
2022/06/24 08:24:21;;;;;;;;;;;27.30;93.80;;;;;;4957477;28;19911;-80
2022/06/24 08:26:47;;;;;;;;;;;28.20;92.50;;;;;;4959471;29;20398;-79
2022/06/24 08:29:13;;;;;;;;;;;27.80;91.10;;;;;;4959793;29;19910;-79
2022/06/24 08:31:38;;;;;;;;;;;26.30;91.90;;;;;;4959297;29;19969;-79
2022/06/24 08:34:04;;;;;;;;;;;25.70;94.30;;;;;;4959343;29;20283;-79
2022/06/24 08:36:29;;;;;;;;;;;26.70;92.50;;;;;;4959280;28;20009;-80
2022/06/24 08:38:55;;;;;;;;;;;26.30;92.80;;;;;;4959658;28;20327;-79
2022/06/24 08:41:22;;;;;;;;;;;25.30;94.10;;;;;;4959501;28;19911;-79
2022/06/24 08:43:49;;;;;;;;;;;24.90;94.90;;;;;;4959257;29;20387;-78
2022/06/24 08:46:15;;;;;;;;;;;25.40;94.70;;;;;;4941770;29;20343;-79
2022/06/24 08:48:41;;;;;;;;;;;24.50;94.80;;;;;;4958803;28;20494;-78
2022/06/24 08:51:07;;;;;;;;;;;23.40;97.10;;;;;;4959391;29;19950;-79
2022/06/24 08:53:33;;;;;;;;;;;22.50;99.90;;;;;;4958999;29;19959;-79
2022/06/24 08:55:59;;;;;;;;;;;21.90;99.90;;;;;;4958913;29;19910;-78
2022/06/24 08:58:24;;;;;;;;;;;21.40;99.90;;;;;;4958919;29;19910;-78
2022/06/24 09:00:50;;;;;;;;;;;21.20;99.90;;;;;;4959019;29;19910;-77
2022/06/24 09:03:16;;;;;;;;;;;21.10;99.90;;;;;;4958870;29;19958;-78
2022/06/24 09:05:41;;;;;;;;;;;21.00;99.90;;;;;;4941530;29;19953;-78
2022/06/24 09:08:11;;;;;;;;;;;20.90;99.90;;;;;;4958785;29;19918;-79
2022/06/24 09:10:38;;;;;;;;;;;20.70;99.90;;;;;;4959065;28;19911;-78
2022/06/24 09:13:04;;;;;;;;;;;20.40;99.90;;;;;;4958746;29;19914;-77
2022/06/24 09:15:29;;;;;;;;;;;20.00;99.90;;;;;;4958590;29;19933;-77
2022/06/24 09:17:55;;;;;;;;;;;19.40;99.90;;;;;;4958731;29;19910;-77
2022/06/24 09:20:25;;;;;;;;;;;18.70;99.90;;;;;;4958579;28;20268;-78
2022/06/24 09:23:00;;;;;;;;;;;18.20;99.90;;;;;;4958479;29;19917;-75
2022/06/24 09:25:26;;;;;;;;;;;18.00;99.90;;;;;;4958742;29;20005;-76
2022/06/24 09:27:51;;;;;;;;;;;18.30;99.90;;;;;;4958400;28;20391;-77
2022/06/24 09:30:17;;;;;;;;;;;18.80;99.90;;;;;;4958400;28;19917;-78
2022/06/24 09:32:50;;;;;;;;;;;19.40;99.90;;;;;;4958184;29;19915;-76
2022/06/24 09:35:15;;;;;;;;;;;19.70;99.90;;;;;;4958094;28;20265;-77
2022/06/24 09:37:41;;;;;;;;;;;20.10;99.90;;;;;;4940971;29;19976;-76
2022/06/24 09:40:16;;;;;;;;;;;20.30;99.90;;;;;;4958180;28;19911;-77
2022/06/24 09:42:42;;;;;;;;;;;20.80;99.90;;;;;;4958074;29;19910;-77
2022/06/24 09:45:08;;;;;;;;;;;22.90;99.90;;;;;;4958004;29;19914;-78
2022/06/24 09:47:39;;;;;;;;;;;24.60;99.90;;;;;;4958017;29;19965;-79
2022/06/24 09:50:05;;;;;;;;;;;25.20;99.90;;;;;;4957933;28;19929;-78
2022/06/24 09:52:31;;;;;;;;;;;25.90;99.90;;;;;;4957923;29;19961;-78
2022/06/24 09:54:57;;;;;;;;;;;26.70;98.20;;;;;;4957896;29;19911;-80
2022/06/24 09:57:23;;;;;;;;;;;26.90;98.60;;;;;;4958264;29;20035;-79
2022/06/24 10:02:32;;;;;;;;;;;25.90;95.30;;;;;;4957905;29;19977;-79
2022/06/24 10:04:59;;;;;;;;;;;24.30;98.40;;;;;;4957827;29;20390;-78
2022/06/24 10:07:26;;;;;;;;;;;23.00;99.90;;;;;;4958047;29;19910;-78
2022/06/24 10:09:52;;;;;;;;;;;22.30;99.90;;;;;;4957613;29;19917;-78
2022/06/24 10:12:21;;;;;;;;;;;21.70;99.90;;;;;;4957397;28;19918;-78
2022/06/24 10:14:46;;;;;;;;;;;21.40;99.90;;;;;;4957488;29;19977;-78
2022/06/24 10:17:12;;;;;;;;;;;21.10;99.90;;;;;;4957674;29;20261;-78
2022/06/24 10:19:38;;;;;;;;;;;21.00;99.90;;;;;;4957451;29;19961;-78
2022/06/24 10:22:04;;;;;;;;;;;20.90;99.90;;;;;;4957349;28;20049;-79
2022/06/24 10:24:38;;;;;;;;;;;20.60;99.90;;;;;;4957370;29;19961;-79
2022/06/24 10:27:04;;;;;;;;;;;20.70;99.90;;;;;;4957434;29;19918;-78
2022/06/24 10:29:31;;;;;;;;;;;20.40;99.90;;;;;;4957363;29;19910;-78
2022/06/24 10:31:59;;;;;;;;;;;20.60;99.90;;;;;;4957171;29;19921;-79
2022/06/24 10:34:33;;;;;;;;;;;21.00;99.90;;;;;;4957177;29;19917;-79
2022/06/24 10:36:59;;;;;;;;;;;21.40;99.90;;;;;;4957760;29;19911;-79
2022/06/24 10:39:27;;;;;;;;;;;22.40;99.90;;;;;;4959479;28;20002;-80
2022/06/24 10:42:06;;;;;;;;;;;23.30;99.90;;;;;;4961251;28;19964;-79
2022/06/24 10:44:32;;;;;;;;;;;24.10;99.90;;;;;;4962402;28;20288;-78
2022/06/24 10:47:21;;;;;;;;;;;24.60;99.90;;;;;;4964555;28;19918;-79
2022/06/24 10:52:32;;;;;;;;;;;23.60;99.90;;;;;;4965379;28;20401;-78
2022/06/24 10:55:21;;;;;;;;;;;25.10;98.30;;;;;;4965204;28;19998;-79
2022/06/24 10:57:48;;;;;;;;;;;26.30;94.20;;;;;;4964278;28;19961;-78
2022/06/24 11:00:19;;;;;;;;;;;26.20;91.90;;;;;;4966740;28;19953;-79
2022/06/24 11:02:45;;;;;;;;;;;25.40;93.30;;;;;;4946971;28;20413;-81
2022/06/24 11:05:16;;;;;;;;;;;26.80;91.70;;;;;;4966758;28;19924;-78
2022/06/24 11:07:45;;;;;;;;;;;26.80;90.80;;;;;;4965632;28;19910;-80
2022/06/24 11:10:21;;;;;;;;;;;26.40;88.40;;;;;;4964444;28;19918;-79
2022/06/24 11:12:48;;;;;;;;;;;28.00;89.70;;;;;;4964982;28;20382;-80
2022/06/24 11:15:14;;;;;;;;;;;29.30;79.80;;;;;;4966480;28;20379;-79
2022/06/24 11:17:44;;;;;;;;;;;29.60;76.70;;;;;;4963892;28;19961;-79
2022/06/24 11:20:13;;;;;;;;;;;29.10;75.00;;;;;;4966303;28;19911;-80
2022/06/24 11:22:44;;;;;;;;;;;29.50;75.90;;;;;;4964733;28;19915;-79
2022/06/24 11:25:12;;;;;;;;;;;28.50;72.60;;;;;;4967046;28;19972;-78
2022/06/24 11:27:38;;;;;;;;;;;28.50;74.80;;;;;;4964609;28;20159;-78
2022/06/24 11:30:04;;;;;;;;;;;28.70;71.70;;;;;;4945557;29;19915;-79
2022/06/24 11:32:48;;;;;;;;;;;26.50;75.00;;;;;;4956031;29;19914;-79
2022/06/24 11:35:17;;;;;;;;;;;25.60;78.80;;;;;;4956234;29;20362;-78
2022/06/24 11:37:43;;;;;;;;;;;25.10;79.30;;;;;;4956517;29;19918;-79
2022/06/24 11:40:09;;;;;;;;;;;24.20;79.20;;;;;;4956086;29;20291;-78
2022/06/24 11:42:34;;;;;;;;;;;23.60;82.80;;;;;;4938719;29;19976;-80
2022/06/24 11:45:00;;;;;;;;;;;22.90;85.30;;;;;;4956010;29;19911;-79
2022/06/24 11:47:31;;;;;;;;;;;22.70;90.10;;;;;;4956231;29;19910;-79
2022/06/24 11:49:56;;;;;;;;;;;22.30;90.90;;;;;;4955689;29;19926;-79
2022/06/24 11:52:22;;;;;;;;;;;22.00;92.60;;;;;;4955782;29;19966;-78
2022/06/24 11:54:48;;;;;;;;;;;22.00;93.30;;;;;;4955684;29;20391;-80
2022/06/24 11:57:13;;;;;;;;;;;22.80;92.60;;;;;;4955798;29;20005;-79
2022/06/24 11:59:39;;;;;;;;;;;25.50;89.90;;;;;;4954974;28;19910;-78
2022/06/24 12:02:08;;;;;;;;;;;27.90;82.60;;;;;;4955850;29;19950;-79
2022/06/24 12:04:34;;;;;;;;;;;29.90;78.50;;;;;;4955725;29;20379;-80
2022/06/24 12:07:02;;;;;;;;;;;30.30;70.10;;;;;;4955698;29;19962;-79
2022/06/24 12:09:28;;;;;;;;;;;30.10;65.30;;;;;;4955640;29;20435;-78
2022/06/24 12:11:53;;;;;;;;;;;29.30;66.00;;;;;;4955807;29;19915;-79
2022/06/24 12:14:20;;;;;;;;;;;27.70;69.00;;;;;;4955520;29;19954;-78
2022/06/24 12:17:03;;;;;;;;;;;27.00;71.30;;;;;;4955475;29;19910;-79
2022/06/24 12:19:33;;;;;;;;;;;26.80;69.50;;;;;;4955698;29;20379;-78
2022/06/24 12:22:11;;;;;;;;;;;26.80;70.30;;;;;;4955597;29;19914;-78
2022/06/24 12:24:38;;;;;;;;;;;27.20;69.70;;;;;;4955525;29;19977;-79
2022/06/24 12:27:04;;;;;;;;;;;26.80;70.10;;;;;;4955994;29;19910;-79
2022/06/24 12:29:32;;;;;;;;;;;26.70;71.00;;;;;;4955473;29;19933;-78
2022/06/24 12:31:58;;;;;;;;;;;27.50;69.10;;;;;;4938119;29;19969;-79
2022/06/24 12:34:26;;;;;;;;;;;27.50;69.90;;;;;;4955379;29;19961;-79
2022/06/24 12:36:56;;;;;;;;;;;27.10;70.50;;;;;;4955382;29;20328;-77
2022/06/24 12:39:41;;;;;;;;;;;27.90;69.50;;;;;;4955677;29;19916;-77
2022/06/24 12:42:07;;;;;;;;;;;28.70;67.60;;;;;;4955445;29;19911;-79
2022/06/24 12:44:40;;;;;;;;;;;29.40;67.50;;;;;;4955391;29;19917;-79
2022/06/24 12:52:38;;;;;;;;;;;27.60;68.50;;;;;;4955056;29;20342;-79
2022/06/24 12:55:06;;;;;;;;;;;26.80;69.20;;;;;;4955774;29;19950;-78
2022/06/24 12:57:32;;;;;;;;;;;26.00;70.90;;;;;;4955368;29;19910;-77
2022/06/24 12:59:57;;;;;;;;;;;25.40;72.30;;;;;;4955874;29;19910;-79
2022/06/24 13:02:23;;;;;;;;;;;24.90;74.50;;;;;;4955219;29;20353;-79
2022/06/24 13:04:49;;;;;;;;;;;25.70;74.10;;;;;;4937952;29;19914;-78
2022/06/24 13:07:14;;;;;;;;;;;25.90;72.50;;;;;;4955468;29;19944;-79
2022/06/24 13:09:40;;;;;;;;;;;25.20;74.20;;;;;;4956012;28;19997;-79
2022/06/24 13:12:05;;;;;;;;;;;24.80;74.90;;;;;;4958768;29;20028;-79
2022/06/24 13:14:31;;;;;;;;;;;24.50;77.20;;;;;;4958750;29;19914;-78
2022/06/24 13:16:57;;;;;;;;;;;24.70;77.90;;;;;;4958579;29;19918;-79
2022/06/24 13:19:22;;;;;;;;;;;25.80;78.00;;;;;;4958572;29;19957;-79
2022/06/24 13:21:48;;;;;;;;;;;26.00;74.10;;;;;;4958632;29;19914;-78
2022/06/24 13:24:13;;;;;;;;;;;25.50;75.60;;;;;;4958645;29;19911;-76
2022/06/24 13:26:39;;;;;;;;;;;24.80;77.20;;;;;;4958427;29;20378;-77
2022/06/24 13:29:05;;;;;;;;;;;24.20;79.90;;;;;;4958490;29;19914;-77
2022/06/24 13:31:30;;;;;;;;;;;23.40;84.80;;;;;;4958454;29;19918;-78
2022/06/24 13:33:56;;;;;;;;;;;23.40;88.60;;;;;;4958506;29;20330;-78
2022/06/24 13:36:21;;;;;;;;;;;23.80;87.20;;;;;;4958319;29;20008;-79
2022/06/24 13:38:48;;;;;;;;;;;24.00;86.90;;;;;;4958309;29;19911;-79
2022/06/24 13:41:14;;;;;;;;;;;24.30;86.20;;;;;;4941564;29;19911;-78
2022/06/24 13:43:39;;;;;;;;;;;24.90;85.30;;;;;;4958218;29;19958;-78
2022/06/24 13:46:05;;;;;;;;;;;25.30;82.50;;;;;;4958090;29;19917;-78
2022/06/24 13:48:31;;;;;;;;;;;25.90;81.80;;;;;;4957759;29;19978;-78
2022/06/24 13:50:56;;;;;;;;;;;27.70;79.00;;;;;;4958163;29;20323;-78
2022/06/24 13:53:22;;;;;;;;;;;27.80;75.40;;;;;;4957899;29;19922;-79
2022/06/24 13:55:47;;;;;;;;;;;26.30;79.40;;;;;;4957854;29;19937;-78
2022/06/24 13:58:13;;;;;;;;;;;25.30;82.60;;;;;;4958040;29;20397;-79
2022/06/24 14:00:39;;;;;;;;;;;24.30;86.40;;;;;;4957896;29;20335;-77
2022/06/24 14:03:05;;;;;;;;;;;24.40;89.60;;;;;;4957884;29;19911;-78
2022/06/24 14:05:30;;;;;;;;;;;25.00;87.40;;;;;;4958168;29;19921;-78
2022/06/24 14:07:56;;;;;;;;;;;25.80;83.90;;;;;;4957879;29;19917;-79
2022/06/24 14:10:22;;;;;;;;;;;25.80;84.40;;;;;;4957849;29;19910;-78
2022/06/24 14:12:47;;;;;;;;;;;25.70;83.00;;;;;;4957589;29;20310;-77
2022/06/24 14:15:15;;;;;;;;;;;25.00;82.20;;;;;;4957558;29;19993;-78
2022/06/24 14:17:42;;;;;;;;;;;24.70;85.00;;;;;;4957572;29;19910;-78
2022/06/24 14:20:08;;;;;;;;;;;24.50;85.70;;;;;;4957525;29;20367;-79
2022/06/24 14:22:34;;;;;;;;;;;24.20;86.20;;;;;;4956587;28;19910;-78
2022/06/24 14:24:59;;;;;;;;;;;24.40;85.50;;;;;;4957414;29;19911;-78
2022/06/24 14:27:25;;;;;;;;;;;25.00;83.80;;;;;;4957414;29;20272;-78
2022/06/24 14:29:51;;;;;;;;;;;26.00;83.80;;;;;;4957348;29;20323;-78
2022/06/24 14:32:16;;;;;;;;;;;26.30;81.80;;;;;;4957323;29;19914;-78